createdAt,value
2018-08-24T00:02:07.415Z,100053.77
2018-08-24T00:04:35.476Z,100054.84
2018-08-24T00:07:03.541Z,100054.30
2018-08-24T00:09:31.643Z,100052.94
2018-08-24T00:11:59.707Z,100049.94
2018-08-24T00:14:27.784Z,100049.69
2018-08-24T00:16:55.883Z,100056.22
2018-08-24T00:19:23.984Z,100061.09
2018-08-24T00:21:52.092Z,100058.39
2018-08-24T00:24:20.165Z,100062.73
2018-08-24T00:26:48.270Z,100055.41
2018-08-24T00:29:16.435Z,100049.41
2018-08-24T00:31:44.598Z,100048.87
2018-08-24T00:34:12.603Z,100051.31
2018-08-24T00:36:40.711Z,100048.59
2018-08-24T00:39:09.468Z,100051.86
2018-08-24T00:41:37.615Z,100044.24
2018-08-24T00:44:05.795Z,100043.70
2018-08-24T00:46:33.866Z,100046.16
2018-08-24T00:49:01.931Z,100036.90
2018-08-24T00:51:30.011Z,100040.44
2018-08-24T00:53:58.091Z,100037.45
2018-08-24T00:59:00.631Z,100037.97
2018-08-24T01:01:28.692Z,100048.85
2018-08-24T01:03:56.771Z,100053.22
2018-08-24T01:06:25.423Z,100052.32
2018-08-24T01:08:53.491Z,100051.50
2018-08-24T01:11:25.746Z,100059.69
2018-08-24T01:13:54.098Z,100055.33
2018-08-24T01:16:27.562Z,100059.14
2018-08-24T01:18:55.623Z,100061.83
2018-08-24T01:21:23.710Z,100062.10
2018-08-24T01:23:52.043Z,100062.37
2018-08-24T01:26:22.077Z,100063.45
2018-08-24T01:28:50.787Z,100049.86
2018-08-24T01:31:18.907Z,100053.95
2018-08-24T01:33:46.976Z,100057.48
2018-08-24T01:36:15.032Z,100052.03
2018-08-24T01:38:43.102Z,100056.92
2018-08-24T01:41:11.175Z,100053.91
2018-08-24T01:43:39.261Z,100052.31
2018-08-24T01:46:09.342Z,100055.55
2018-08-24T01:48:37.700Z,100053.64
2018-08-24T01:51:05.812Z,100045.74
2018-08-24T01:53:33.962Z,100044.66
2018-08-24T01:56:02.031Z,100040.84
2018-08-24T01:58:30.100Z,100037.61
2018-08-24T02:00:58.193Z,100032.47
2018-08-24T02:03:26.274Z,100042.79
2018-08-24T02:06:09.711Z,100043.05
2018-08-24T02:08:38.333Z,100045.94
2018-08-24T02:11:10.755Z,100039.18
2018-08-24T02:13:44.447Z,100037.78
2018-08-24T02:16:12.515Z,100039.94
2018-08-24T02:18:45.855Z,100039.95
2018-08-24T02:21:19.210Z,100037.75
2018-08-24T02:23:47.279Z,100046.38
2018-08-24T02:26:15.341Z,100044.54
2018-08-24T02:28:43.408Z,100039.66
2018-08-24T02:31:11.538Z,100039.64
2018-08-24T02:33:40.163Z,100045.88
2018-08-24T02:36:09.339Z,100043.66
2018-08-24T02:38:37.495Z,100044.95
2018-08-24T02:41:05.612Z,100037.88
2018-08-24T02:43:33.695Z,100037.06
2018-08-24T02:46:01.769Z,100039.23
2018-08-24T02:48:29.829Z,100040.25
2018-08-24T02:50:57.884Z,100035.88
2018-08-24T02:53:26.160Z,100037.75
2018-08-24T02:55:54.215Z,100034.69
2018-08-24T02:58:22.300Z,100032.27
2018-08-24T03:00:50.364Z,100021.92
2018-08-24T03:03:18.476Z,100034.09
2018-08-24T03:05:46.537Z,100033.55
2018-08-24T03:08:14.650Z,100034.91
2018-08-24T03:10:42.680Z,100033.44
2018-08-24T03:13:10.750Z,100040.21
2018-08-24T03:15:38.831Z,100040.00
2018-08-24T03:18:06.893Z,100028.81
2018-08-24T03:20:34.963Z,100034.17
2018-08-24T03:23:03.080Z,100039.12
2018-08-24T03:25:31.227Z,100046.41
2018-08-24T03:27:59.325Z,100044.16
2018-08-24T03:30:27.395Z,100043.33
2018-08-24T03:32:55.447Z,100036.23
2018-08-24T03:35:23.538Z,100024.81
2018-08-24T03:37:51.595Z,100035.15
2018-08-24T03:40:19.656Z,100023.48
2018-08-24T03:42:47.721Z,100028.30
2018-08-24T03:45:15.836Z,100019.83
2018-08-24T03:47:43.899Z,100030.91
2018-08-24T03:50:11.964Z,100030.87
2018-08-24T03:52:40.055Z,100039.38
2018-08-24T03:55:08.072Z,100027.83
2018-08-24T03:57:36.127Z,100037.08
2018-08-24T04:00:04.306Z,100040.32
2018-08-24T04:02:32.379Z,100047.13
2018-08-24T04:05:00.443Z,100047.80
2018-08-24T04:07:28.515Z,100051.48
2018-08-24T04:09:56.610Z,100051.33
2018-08-24T04:12:24.657Z,100049.42
2018-08-24T04:14:52.711Z,100048.27
2018-08-24T04:17:26.080Z,100049.57
2018-08-24T04:19:54.213Z,100054.94
2018-08-24T04:22:22.330Z,100053.66
2018-08-24T04:24:50.398Z,100047.50
2018-08-24T04:27:18.472Z,100057.02
2018-08-24T04:29:46.602Z,100053.58
2018-08-24T04:32:14.664Z,100056.34
2018-08-24T04:34:42.764Z,100053.08
2018-08-24T04:37:10.844Z,100060.89
2018-08-24T04:39:38.929Z,100067.37
2018-08-24T04:42:06.988Z,100069.84
2018-08-24T04:44:35.068Z,100074.35
2018-08-24T04:47:03.132Z,100073.27
2018-08-24T04:49:31.219Z,100071.98
2018-08-24T04:51:59.291Z,100072.32
2018-08-24T04:54:27.341Z,100080.22
2018-08-24T04:56:55.392Z,100081.52
2018-08-24T04:59:23.527Z,100086.58
2018-08-24T05:01:51.609Z,100082.69
2018-08-24T05:04:19.669Z,100088.05
2018-08-24T05:06:47.740Z,100088.80
2018-08-24T05:09:15.814Z,100088.01
2018-08-24T05:11:43.878Z,100094.16
2018-08-24T05:14:11.962Z,100087.58
2018-08-24T05:16:40.031Z,100092.11
2018-08-24T05:19:08.116Z,100088.17
2018-08-24T05:21:36.171Z,100096.62
2018-08-24T05:24:04.379Z,100101.95
2018-08-24T05:26:32.479Z,100104.50
2018-08-24T05:29:00.562Z,100105.36
2018-08-24T05:31:28.631Z,100106.64
2018-08-24T05:33:56.732Z,100115.27
2018-08-24T05:36:24.832Z,100117.45
2018-08-24T05:38:52.897Z,100105.69
2018-08-24T05:41:21.003Z,100106.02
2018-08-24T05:43:49.075Z,100113.95
2018-08-24T05:46:17.131Z,100120.50
2018-08-24T05:48:45.289Z,100121.06
2018-08-24T05:51:13.367Z,100123.53
2018-08-24T05:53:41.424Z,100132.00
2018-08-24T05:56:09.492Z,100129.94
2018-08-24T05:58:37.674Z,100123.48
2018-08-24T06:01:05.736Z,100133.33
2018-08-24T06:03:33.835Z,100141.78
2018-08-24T06:06:02.995Z,100145.22
2018-08-24T06:08:31.776Z,100138.65
2018-08-24T06:11:00.667Z,100137.66
2018-08-24T06:13:28.740Z,100136.88
2018-08-24T06:18:31.335Z,100139.40
2018-08-24T06:20:59.409Z,100145.84
2018-08-24T06:23:27.635Z,100140.69
2018-08-24T06:25:55.715Z,100145.95
2018-08-24T06:28:23.775Z,100150.08
2018-08-24T06:30:51.868Z,100139.66
2018-08-24T06:33:22.735Z,100145.48
2018-08-24T06:35:51.009Z,100143.62
2018-08-24T06:38:19.103Z,100139.05
2018-08-24T06:40:47.179Z,100149.59
2018-08-24T06:43:15.248Z,100148.05
2018-08-24T06:45:43.329Z,100154.39
2018-08-24T06:48:11.388Z,100156.83
2018-08-24T06:50:39.487Z,100159.58
2018-08-24T06:53:07.633Z,100164.78
2018-08-24T06:55:35.606Z,100166.15
2018-08-24T06:58:03.751Z,100161.20
2018-08-24T07:00:32.640Z,100170.70
2018-08-24T07:03:01.742Z,100177.52
2018-08-24T07:05:29.947Z,100176.68
2018-08-24T07:07:58.038Z,100195.16
2018-08-24T07:10:26.132Z,100207.95
2018-08-24T07:12:54.293Z,100205.16
2018-08-24T07:15:22.375Z,100206.75
2018-08-24T07:17:55.861Z,100207.02
2018-08-24T07:20:24.005Z,100214.27
2018-08-24T07:22:52.205Z,100208.45
2018-08-24T07:25:20.318Z,100201.75
2018-08-24T07:27:48.427Z,100199.76
2018-08-24T07:30:16.500Z,100198.72
2018-08-24T07:32:44.569Z,100198.03
2018-08-24T07:35:13.311Z,100191.06
2018-08-24T07:37:41.384Z,100200.61
2018-08-24T07:40:09.463Z,100202.00
2018-08-24T07:42:37.535Z,100202.78
2018-08-24T07:45:05.600Z,100202.27
2018-08-24T07:47:33.673Z,100215.32
2018-08-24T07:50:01.784Z,100214.70
2018-08-24T07:52:29.858Z,100214.78
2018-08-24T07:54:57.922Z,100218.27
2018-08-24T07:57:26.009Z,100223.50
2018-08-24T07:59:54.133Z,100228.69
2018-08-24T08:02:27.547Z,100234.95
2018-08-24T08:04:55.631Z,100221.66
2018-08-24T08:07:23.732Z,100235.53
2018-08-24T08:09:51.847Z,100240.73
2018-08-24T08:12:19.935Z,100236.56
2018-08-24T08:14:53.276Z,100234.97
2018-08-24T08:17:21.417Z,100237.97
2018-08-24T08:19:49.486Z,100237.09
2018-08-24T08:22:17.568Z,100230.11
2018-08-24T08:24:45.710Z,100227.13
2018-08-24T08:27:13.765Z,100234.31
2018-08-24T08:29:47.068Z,100236.20
2018-08-24T08:32:15.152Z,100239.75
2018-08-24T08:34:48.638Z,100246.81
2018-08-24T08:37:16.744Z,100243.63
2018-08-24T08:39:44.859Z,100241.73
2018-08-24T08:42:12.929Z,100238.16
2018-08-24T08:44:40.992Z,100243.85
2018-08-24T08:47:09.143Z,100241.42
2018-08-24T08:49:37.287Z,100248.98
2018-08-24T08:52:05.475Z,100250.14
2018-08-24T08:54:33.590Z,100265.94
2018-08-24T08:57:01.718Z,100271.39
2018-08-24T08:59:29.794Z,100266.72
2018-08-24T09:01:57.857Z,100269.45
2018-08-24T09:04:25.955Z,100275.41
2018-08-24T09:06:54.014Z,100287.22
2018-08-24T09:09:22.092Z,100296.05
2018-08-24T09:11:50.403Z,100314.46
2018-08-24T09:14:18.506Z,100322.02
2018-08-24T09:16:46.565Z,100315.64
2018-08-24T09:19:20.054Z,100327.06
2018-08-24T09:21:53.544Z,100308.66
2018-08-24T09:24:27.039Z,100306.67
2018-08-24T09:27:00.376Z,100320.02
2018-08-24T09:29:29.171Z,100340.64
2018-08-24T09:31:58.896Z,100350.02
2018-08-24T09:34:26.967Z,100347.42
2018-08-24T09:36:55.126Z,100359.99
2018-08-24T09:39:29.397Z,100361.02
2018-08-24T09:41:59.240Z,100379.89
2018-08-24T09:44:27.355Z,100364.47
2018-08-24T09:47:00.844Z,100364.67
2018-08-24T09:49:31.335Z,100361.84
2018-08-24T09:51:59.433Z,100357.23
2018-08-24T09:54:27.546Z,100361.14
2018-08-24T09:56:55.670Z,100365.83
2018-08-24T09:59:23.813Z,100354.77
2018-08-24T10:01:57.135Z,100357.80
2018-08-24T10:04:30.654Z,100361.46
2018-08-24T10:07:04.128Z,100360.35
2018-08-24T10:09:32.242Z,100356.31
2018-08-24T10:12:00.295Z,100357.78
2018-08-24T10:14:28.391Z,100362.72
2018-08-24T10:16:56.457Z,100358.67
2018-08-24T10:19:24.596Z,100356.11
2018-08-24T10:21:52.651Z,100348.75
2018-08-24T10:24:20.722Z,100360.29
2018-08-24T10:26:48.799Z,100357.73
2018-08-24T10:29:16.927Z,100358.51
2018-08-24T10:31:44.959Z,100360.05
2018-08-24T10:34:13.056Z,100341.44
2018-08-24T10:36:41.116Z,100335.83
2018-08-24T10:39:10.461Z,100334.38
2018-08-24T10:41:38.427Z,100347.72
2018-08-24T10:44:06.583Z,100346.08
2018-08-24T10:46:34.683Z,100350.77
2018-08-24T10:49:02.951Z,100344.34
2018-08-24T10:51:31.096Z,100340.80
2018-08-24T10:53:59.144Z,100335.79
2018-08-24T10:56:27.296Z,100327.73
2018-08-24T10:58:55.411Z,100319.05
2018-08-24T11:01:23.511Z,100314.34
2018-08-24T11:03:51.597Z,100307.67
2018-08-24T11:06:19.683Z,100322.11
2018-08-24T11:08:47.736Z,100317.86
2018-08-24T11:11:15.843Z,100325.37
2018-08-24T11:13:44.151Z,100317.37
2018-08-24T11:16:12.479Z,100313.02
2018-08-24T11:18:40.552Z,100308.66
2018-08-24T11:21:08.639Z,100301.03
2018-08-24T11:23:36.809Z,100303.94
2018-08-24T11:26:04.970Z,100301.27
2018-08-24T11:28:33.056Z,100302.61
2018-08-24T11:31:01.091Z,100305.49
2018-08-24T11:33:29.127Z,100314.19
2018-08-24T11:35:57.268Z,100307.56
2018-08-24T11:38:25.383Z,100306.41
2018-08-24T11:40:53.455Z,100287.75
2018-08-24T11:43:21.527Z,100301.03
2018-08-24T11:45:49.619Z,100298.02
2018-08-24T11:48:17.685Z,100287.16
2018-08-24T11:50:45.751Z,100285.53
2018-08-24T11:53:13.816Z,100286.54
2018-08-24T11:55:41.884Z,100282.72
2018-08-24T11:58:09.943Z,100274.23
2018-08-24T12:00:38.001Z,100260.16
2018-08-24T12:03:06.101Z,100265.97
2018-08-24T12:05:34.180Z,100261.58
2018-08-24T12:08:02.432Z,100271.64
2018-08-24T12:10:30.344Z,100266.80
2018-08-24T12:12:58.735Z,100261.56
2018-08-24T12:15:26.804Z,100262.45
2018-08-24T12:17:55.173Z,100262.50
2018-08-24T12:20:23.235Z,100256.04
2018-08-24T12:22:51.609Z,100250.58
2018-08-24T12:25:19.646Z,100254.12
2018-08-24T12:27:47.724Z,100265.27
2018-08-24T12:30:15.800Z,100257.94
2018-08-24T12:32:43.868Z,100248.34
2018-08-24T12:35:11.988Z,100259.80
2018-08-24T12:37:45.279Z,100243.47
2018-08-24T12:40:13.955Z,100253.84
2018-08-24T12:42:42.047Z,100246.52
2018-08-24T12:45:10.104Z,100247.05
2018-08-24T12:47:38.367Z,100251.64
2018-08-24T12:50:07.281Z,100239.64
2018-08-24T12:52:35.388Z,100233.44
2018-08-24T12:55:03.547Z,100226.88
2018-08-24T12:57:31.894Z,100231.23
2018-08-24T13:00:00.659Z,100218.41
2018-08-24T13:02:28.661Z,100212.92
2018-08-24T13:04:56.945Z,100215.96
2018-08-24T13:07:25.035Z,100215.40
2018-08-24T13:09:53.155Z,100203.63
2018-08-24T13:12:21.287Z,100211.48
2018-08-24T13:14:49.359Z,100209.55
2018-08-24T13:17:17.544Z,100198.67
2018-08-24T13:19:45.639Z,100198.97
2018-08-24T13:22:13.711Z,100197.36
2018-08-24T13:24:41.837Z,100201.70
2018-08-24T13:27:09.983Z,100205.31
2018-08-24T13:29:38.008Z,100194.30
2018-08-24T13:32:06.240Z,100191.23
2018-08-24T13:34:34.298Z,100192.64
2018-08-24T13:37:02.366Z,100192.44
2018-08-24T13:39:30.443Z,100196.39
2018-08-24T13:41:58.595Z,100185.82
2018-08-24T13:44:26.671Z,100180.12
2018-08-24T13:46:54.741Z,100182.14
2018-08-24T13:49:22.848Z,100178.30
2018-08-24T13:51:50.948Z,100174.80
2018-08-24T13:54:19.035Z,100165.91
2018-08-24T13:56:47.103Z,100156.25
2018-08-24T13:59:21.606Z,100157.97
2018-08-24T14:01:49.631Z,100159.89
2018-08-24T14:04:17.804Z,100151.11
2018-08-24T14:06:45.924Z,100148.19
2018-08-24T14:09:13.991Z,100151.51
2018-08-24T14:11:42.162Z,100160.05
2018-08-24T14:14:10.382Z,100145.52
2018-08-24T14:16:38.988Z,100144.56
2018-08-24T14:19:07.083Z,100149.14
2018-08-24T14:21:35.331Z,100142.98
2018-08-24T14:24:03.412Z,100134.67
2018-08-24T14:26:31.577Z,100134.64
2018-08-24T14:28:59.656Z,100128.59
2018-08-24T14:31:27.761Z,100123.34
2018-08-24T14:33:55.831Z,100122.98
2018-08-24T14:36:23.898Z,100120.54
2018-08-24T14:39:14.307Z,100119.25
2018-08-24T14:41:42.395Z,100117.09
2018-08-24T14:44:17.225Z,100112.17
2018-08-24T14:46:45.303Z,100121.45
2018-08-24T14:49:13.389Z,100114.92
2018-08-24T14:51:41.451Z,100118.58
2018-08-24T14:54:09.533Z,100113.55
2018-08-24T14:56:37.650Z,100104.50
2018-08-24T14:59:05.913Z,100109.62
2018-08-24T15:01:34.113Z,100115.74
2018-08-24T15:04:02.223Z,100112.31
2018-08-24T15:06:30.367Z,100116.67
2018-08-24T15:08:58.445Z,100116.80
2018-08-24T15:11:56.306Z,100122.22
2018-08-24T15:14:24.445Z,100121.84
2018-08-24T15:16:52.561Z,100117.80
2018-08-24T15:19:20.676Z,100116.49
2018-08-24T15:21:48.754Z,100117.66
2018-08-24T15:24:18.477Z,100114.36
2018-08-24T15:26:54.439Z,100103.67
2018-08-24T15:35:38.659Z,100099.13
2018-08-24T16:05:26.557Z,100093.12
2018-08-24T16:07:54.634Z,100095.15
2018-08-24T16:10:22.726Z,100104.92
2018-08-24T16:12:50.836Z,100094.52
2018-08-24T16:15:18.930Z,100095.16
2018-08-24T16:17:51.268Z,100090.66
2018-08-24T16:20:19.314Z,100096.61
2018-08-24T16:22:47.387Z,100095.16
2018-08-24T16:25:15.475Z,100101.13
2018-08-24T16:27:43.520Z,100106.19
2018-08-24T16:30:11.601Z,100098.69
2018-08-24T16:32:39.664Z,100103.40
2018-08-24T16:35:07.715Z,100101.52
2018-08-24T16:37:35.775Z,100111.09
2018-08-24T16:40:03.870Z,100111.39
2018-08-24T16:42:31.935Z,100110.84
2018-08-24T16:45:00.025Z,100116.14
2018-08-24T16:47:28.096Z,100120.74
2018-08-24T16:49:56.176Z,100119.91
2018-08-24T16:52:24.271Z,100124.53
2018-08-24T16:54:52.355Z,100126.44
2018-08-24T16:57:20.415Z,100122.66
2018-08-24T16:59:48.511Z,100123.27
2018-08-24T17:02:16.585Z,100121.72
2018-08-24T17:04:44.689Z,100120.07
2018-08-24T17:07:12.752Z,100125.77
2018-08-24T17:09:40.831Z,100122.01
2018-08-24T17:12:08.888Z,100124.20
2018-08-24T17:14:36.949Z,100131.63
2018-08-24T17:17:05.219Z,100134.34
2018-08-24T17:19:33.291Z,100131.38
2018-08-24T17:22:01.373Z,100130.84
2018-08-24T17:24:29.436Z,100136.30
2018-08-24T17:26:57.498Z,100133.87
2018-08-24T17:29:25.644Z,100128.18
2018-08-24T17:31:53.755Z,100131.98
2018-08-24T17:34:21.839Z,100129.00
2018-08-24T17:36:49.917Z,100127.39
2018-08-24T17:39:17.984Z,100129.29
2018-08-24T17:41:46.107Z,100132.59
2018-08-24T17:44:14.128Z,100128.78
2018-08-24T17:46:42.192Z,100141.30
2018-08-24T17:49:10.260Z,100133.73
2018-08-24T17:51:38.330Z,100138.34
2018-08-24T17:54:06.514Z,100145.20
2018-08-24T17:56:34.685Z,100153.94
2018-08-24T17:59:02.779Z,100154.20
2018-08-24T18:01:30.851Z,100148.73
2018-08-24T18:03:58.957Z,100148.20
2018-08-24T18:06:27.070Z,100159.36
2018-08-24T18:08:55.137Z,100156.91
2018-08-24T18:11:23.217Z,100166.45
2018-08-24T18:13:51.496Z,100163.95
2018-08-24T18:16:19.552Z,100167.78
2018-08-24T18:18:48.765Z,100170.23
2018-08-24T18:21:20.158Z,100167.25
2018-08-24T18:24:02.016Z,100168.59
2018-08-24T18:26:32.432Z,100171.84
2018-08-24T18:29:02.677Z,100169.95
2018-08-24T18:31:34.066Z,100169.63
2018-08-24T18:34:06.471Z,100179.67
2018-08-24T18:36:35.729Z,100178.61
2018-08-24T18:39:15.862Z,100179.98
2018-08-24T18:41:45.208Z,100162.80
2018-08-24T18:44:15.418Z,100185.38
2018-08-24T18:46:45.266Z,100184.86
2018-08-24T18:49:17.053Z,100180.47
2018-08-24T18:51:55.340Z,100191.08
2018-08-24T18:54:26.439Z,100201.66
2018-08-24T18:57:12.315Z,100199.73
2018-08-24T18:59:45.473Z,100201.88
2018-08-24T19:02:14.253Z,100211.46
2018-08-24T19:04:43.833Z,100223.45
2018-08-24T19:07:14.726Z,100211.67
2018-08-24T19:09:43.024Z,100229.53
2018-08-24T19:12:16.655Z,100228.48
2018-08-24T19:14:44.986Z,100233.35
2018-08-24T19:19:22.305Z,100222.94
2018-08-24T19:21:57.150Z,100232.99
2018-08-24T19:24:31.825Z,100234.64
2018-08-24T19:27:04.699Z,100243.27
2018-08-24T19:29:50.048Z,100242.19
2018-08-24T19:32:19.161Z,100243.56
2018-08-24T19:34:52.643Z,100246.75
2018-08-24T19:37:21.828Z,100260.36
2018-08-24T19:39:59.904Z,100263.12
2018-08-24T19:42:28.773Z,100261.52
2018-08-24T19:45:01.940Z,100254.66
2018-08-24T19:47:35.708Z,100257.14
2018-08-24T19:50:03.994Z,100247.63
2018-08-24T19:52:35.790Z,100256.52
2018-08-24T19:55:13.795Z,100254.88
2018-08-24T19:57:49.318Z,100257.08
2018-08-24T20:00:22.221Z,100267.14
2018-08-24T20:02:54.506Z,100270.95
2018-08-24T20:05:24.607Z,100258.62
2018-08-24T20:08:03.697Z,100269.62
2018-08-24T20:10:32.927Z,100277.24
2018-08-24T20:13:06.038Z,100274.47
2018-08-24T20:15:41.098Z,100275.45
2018-08-24T20:18:12.104Z,100273.53
2018-08-24T20:20:44.117Z,100281.14
2018-08-24T20:23:15.204Z,100284.33
2018-08-24T20:25:44.626Z,100288.27
2018-08-24T20:28:13.587Z,100289.16
2018-08-24T20:30:41.869Z,100298.27
2018-08-24T20:33:12.118Z,100289.77
2018-08-24T20:35:41.521Z,100287.05
2018-08-24T20:38:18.927Z,100293.70
2018-08-24T20:40:54.043Z,100295.35
2018-08-24T20:43:23.328Z,100296.31
2018-08-24T20:45:54.044Z,100290.45
2018-08-24T20:48:28.958Z,100289.09
2018-08-24T20:51:03.062Z,100293.87
2018-08-24T20:53:31.324Z,100295.17
2018-08-24T20:56:15.519Z,100290.19
2018-08-24T20:58:44.737Z,100292.14
2018-08-24T21:01:13.264Z,100292.56
2018-08-24T21:03:43.073Z,100293.25
2018-08-24T21:06:12.245Z,100291.66
2018-08-24T21:08:51.410Z,100290.05
2018-08-24T21:11:30.045Z,100291.73
2018-08-24T21:13:58.864Z,100296.07
2018-08-24T21:16:28.152Z,100293.80
2018-08-24T21:18:56.545Z,100287.86
2018-08-24T21:21:26.612Z,100287.78
2018-08-24T21:23:55.840Z,100283.75
2018-08-24T21:26:24.488Z,100287.56
2018-08-24T21:28:53.466Z,100281.48
2018-08-24T21:31:22.829Z,100286.84
2018-08-24T21:33:58.243Z,100277.77
2018-08-24T21:36:28.062Z,100278.81
2018-08-24T21:38:59.421Z,100280.55
2018-08-24T21:41:30.980Z,100283.56
2018-08-24T21:44:02.924Z,100278.55
2018-08-24T21:46:31.039Z,100279.56
2018-08-24T21:51:35.004Z,100284.52
2018-08-24T21:54:03.690Z,100273.84
2018-08-24T21:56:31.923Z,100276.16
2018-08-24T21:59:05.746Z,100276.20
2018-08-24T22:01:37.607Z,100276.49
2018-08-24T22:04:09.504Z,100284.47
2018-08-24T22:06:39.831Z,100278.44
2018-08-24T22:09:14.302Z,100280.99
2018-08-24T22:11:48.427Z,100280.61
2018-08-24T22:14:17.876Z,100274.78
2018-08-24T22:16:47.265Z,100280.20
2018-08-24T22:19:23.507Z,100277.23
2018-08-24T22:21:52.556Z,100276.57
2018-08-24T22:31:09.885Z,100270.36
2018-08-24T22:33:41.277Z,100276.38
2018-08-24T22:36:10.913Z,100277.27
2018-08-24T22:38:44.359Z,100276.79
2018-08-24T22:41:13.992Z,100278.00
2018-08-24T22:43:43.239Z,100287.82
2018-08-24T22:46:11.356Z,100287.36
2018-08-24T22:48:39.500Z,100283.71
2018-08-24T22:51:07.684Z,100276.03
2018-08-24T22:53:35.770Z,100274.70
2018-08-24T22:56:03.836Z,100276.62
2018-08-24T22:58:31.938Z,100279.12
2018-08-24T23:01:00.032Z,100271.16
2018-08-24T23:03:28.110Z,100264.55
2018-08-24T23:05:56.216Z,100258.06
2018-08-24T23:08:24.303Z,100262.58
2018-08-24T23:10:52.363Z,100263.75
2018-08-24T23:13:20.462Z,100254.39
2018-08-24T23:15:48.538Z,100253.51
2018-08-24T23:18:16.631Z,100250.95
2018-08-24T23:20:44.715Z,100250.32
2018-08-24T23:23:12.831Z,100250.95
2018-08-24T23:25:40.908Z,100257.41
2018-08-24T23:28:09.041Z,100257.46
2018-08-24T23:30:37.149Z,100255.75
2018-08-24T23:33:05.255Z,100257.41
2018-08-24T23:35:33.381Z,100259.59
2018-08-24T23:38:01.544Z,100260.09
2018-08-24T23:40:29.626Z,100265.88
2018-08-24T23:42:57.727Z,100274.91
2018-08-24T23:45:25.819Z,100262.22
2018-08-24T23:47:53.910Z,100260.40
2018-08-24T23:50:22.013Z,100261.02
2018-08-24T23:52:50.102Z,100254.65
2018-08-24T23:55:18.188Z,100254.91
2018-08-24T23:57:46.269Z,100249.80
